sensor_id;sensor_type;location;lat;lon;timestamp;P1;durP1;ratioP1;P2;durP2;ratioP2
2896;SDS011;1458;49.728;9.228;2022-12-18T00:01:14;1.80;;;1.80;;
2896;SDS011;1458;49.728;9.228;2022-12-18T00:03:43;1.80;;;1.80;;
2896;SDS011;1458;49.728;9.228;2022-12-18T00:06:13;1.90;;;1.90;;
2896;SDS011;1458;49.728;9.228;2022-12-18T00:08:40;2.00;;;2.00;;
2896;SDS011;1458;49.728;9.228;2022-12-18T00:11:10;2.10;;;2.10;;
2896;SDS011;1458;49.728;9.228;2022-12-18T00:13:39;1.80;;;1.80;;
2896;SDS011;1458;49.728;9.228;2022-12-18T00:16:07;1.80;;;1.80;;
2896;SDS011;1458;49.728;9.228;2022-12-18T00:18:39;1.80;;;1.80;;
2896;SDS011;1458;49.728;9.228;2022-12-18T00:21:09;1.80;;;1.80;;
2896;SDS011;1458;49.728;9.228;2022-12-18T00:23:38;1.70;;;1.70;;
2896;SDS011;1458;49.728;9.228;2022-12-18T00:26:09;1.60;;;1.60;;
2896;SDS011;1458;49.728;9.228;2022-12-18T00:28:41;1.70;;;1.70;;
2896;SDS011;1458;49.728;9.228;2022-12-18T00:31:10;1.60;;;1.60;;
2896;SDS011;1458;49.728;9.228;2022-12-18T00:33:41;1.60;;;1.60;;
2896;SDS011;1458;49.728;9.228;2022-12-18T00:36:09;1.60;;;1.60;;
2896;SDS011;1458;49.728;9.228;2022-12-18T00:38:38;1.60;;;1.60;;
2896;SDS011;1458;49.728;9.228;2022-12-18T00:41:07;1.60;;;1.60;;
2896;SDS011;1458;49.728;9.228;2022-12-18T00:43:37;1.60;;;1.60;;
2896;SDS011;1458;49.728;9.228;2022-12-18T00:46:04;1.70;;;1.70;;
2896;SDS011;1458;49.728;9.228;2022-12-18T00:48:32;1.70;;;1.70;;
2896;SDS011;1458;49.728;9.228;2022-12-18T00:51:01;1.70;;;1.70;;
2896;SDS011;1458;49.728;9.228;2022-12-18T00:53:28;1.70;;;1.70;;
2896;SDS011;1458;49.728;9.228;2022-12-18T00:55:56;1.70;;;1.70;;
2896;SDS011;1458;49.728;9.228;2022-12-18T00:58:23;1.70;;;1.70;;
2896;SDS011;1458;49.728;9.228;2022-12-18T01:00:50;1.80;;;1.80;;
2896;SDS011;1458;49.728;9.228;2022-12-18T01:03:18;1.80;;;1.80;;
2896;SDS011;1458;49.728;9.228;2022-12-18T01:05:45;1.80;;;1.80;;
2896;SDS011;1458;49.728;9.228;2022-12-18T01:08:14;1.70;;;1.70;;
2896;SDS011;1458;49.728;9.228;2022-12-18T01:10:42;1.60;;;1.60;;
2896;SDS011;1458;49.728;9.228;2022-12-18T01:13:10;1.60;;;1.60;;
2896;SDS011;1458;49.728;9.228;2022-12-18T01:15:37;1.50;;;1.50;;
2896;SDS011;1458;49.728;9.228;2022-12-18T01:18:05;1.67;;;1.67;;
2896;SDS011;1458;49.728;9.228;2022-12-18T01:20:33;1.60;;;1.60;;
2896;SDS011;1458;49.728;9.228;2022-12-18T01:23:00;1.60;;;1.60;;
2896;SDS011;1458;49.728;9.228;2022-12-18T01:25:29;1.50;;;1.50;;
2896;SDS011;1458;49.728;9.228;2022-12-18T01:27:56;1.50;;;1.50;;
2896;SDS011;1458;49.728;9.228;2022-12-18T01:30:24;1.60;;;1.60;;
2896;SDS011;1458;49.728;9.228;2022-12-18T01:32:52;1.70;;;1.70;;
2896;SDS011;1458;49.728;9.228;2022-12-18T01:35:19;1.70;;;1.70;;
2896;SDS011;1458;49.728;9.228;2022-12-18T01:37:46;1.70;;;1.70;;
2896;SDS011;1458;49.728;9.228;2022-12-18T01:40:14;1.60;;;1.60;;
2896;SDS011;1458;49.728;9.228;2022-12-18T01:42:42;1.70;;;1.70;;
2896;SDS011;1458;49.728;9.228;2022-12-18T01:45:24;1.73;;;1.73;;
2896;SDS011;1458;49.728;9.228;2022-12-18T01:47:54;1.70;;;1.70;;
2896;SDS011;1458;49.728;9.228;2022-12-18T01:50:25;1.70;;;1.70;;
2896;SDS011;1458;49.728;9.228;2022-12-18T01:52:58;1.70;;;1.70;;
2896;SDS011;1458;49.728;9.228;2022-12-18T01:55:31;1.80;;;1.80;;
2896;SDS011;1458;49.728;9.228;2022-12-18T01:58:05;1.70;;;1.70;;
2896;SDS011;1458;49.728;9.228;2022-12-18T02:00:32;1.70;;;1.70;;
2896;SDS011;1458;49.728;9.228;2022-12-18T02:03:00;1.70;;;1.70;;
2896;SDS011;1458;49.728;9.228;2022-12-18T02:05:34;1.63;;;1.63;;
2896;SDS011;1458;49.728;9.228;2022-12-18T02:08:13;1.70;;;1.70;;
2896;SDS011;1458;49.728;9.228;2022-12-18T02:10:48;1.60;;;1.60;;
2896;SDS011;1458;49.728;9.228;2022-12-18T02:13:27;1.67;;;1.67;;
2896;SDS011;1458;49.728;9.228;2022-12-18T02:16:06;1.60;;;1.60;;
2896;SDS011;1458;49.728;9.228;2022-12-18T02:18:43;1.60;;;1.60;;
2896;SDS011;1458;49.728;9.228;2022-12-18T02:21:20;1.60;;;1.60;;
2896;SDS011;1458;49.728;9.228;2022-12-18T02:24:00;1.80;;;1.80;;
2896;SDS011;1458;49.728;9.228;2022-12-18T02:26:46;1.80;;;1.80;;
2896;SDS011;1458;49.728;9.228;2022-12-18T02:29:20;1.90;;;1.90;;
2896;SDS011;1458;49.728;9.228;2022-12-18T02:31:53;1.80;;;1.80;;
2896;SDS011;1458;49.728;9.228;2022-12-18T02:34:28;1.70;;;1.70;;
2896;SDS011;1458;49.728;9.228;2022-12-18T02:36:58;1.80;;;1.80;;
2896;SDS011;1458;49.728;9.228;2022-12-18T02:39:32;1.70;;;1.70;;
2896;SDS011;1458;49.728;9.228;2022-12-18T02:42:04;1.70;;;1.70;;
2896;SDS011;1458;49.728;9.228;2022-12-18T02:44:33;1.70;;;1.70;;
2896;SDS011;1458;49.728;9.228;2022-12-18T02:47:03;1.60;;;1.60;;
2896;SDS011;1458;49.728;9.228;2022-12-18T02:49:31;1.70;;;1.70;;
2896;SDS011;1458;49.728;9.228;2022-12-18T02:52:08;1.70;;;1.70;;
2896;SDS011;1458;49.728;9.228;2022-12-18T02:54:47;1.80;;;1.80;;
2896;SDS011;1458;49.728;9.228;2022-12-18T02:57:28;1.60;;;1.60;;
2896;SDS011;1458;49.728;9.228;2022-12-18T03:00:03;1.70;;;1.70;;
2896;SDS011;1458;49.728;9.228;2022-12-18T03:02:44;1.80;;;1.80;;
2896;SDS011;1458;49.728;9.228;2022-12-18T03:05:22;1.70;;;1.70;;
2896;SDS011;1458;49.728;9.228;2022-12-18T03:07:56;1.90;;;1.90;;
2896;SDS011;1458;49.728;9.228;2022-12-18T03:10:34;1.63;;;1.63;;
2896;SDS011;1458;49.728;9.228;2022-12-18T03:13:09;1.70;;;1.70;;
2896;SDS011;1458;49.728;9.228;2022-12-18T03:15:42;1.60;;;1.60;;
2896;SDS011;1458;49.728;9.228;2022-12-18T03:18:15;1.70;;;1.70;;
2896;SDS011;1458;49.728;9.228;2022-12-18T03:20:47;1.70;;;1.70;;
2896;SDS011;1458;49.728;9.228;2022-12-18T03:23:20;1.70;;;1.70;;
2896;SDS011;1458;49.728;9.228;2022-12-18T03:25:52;1.90;;;1.90;;
2896;SDS011;1458;49.728;9.228;2022-12-18T03:28:27;1.90;;;1.90;;
2896;SDS011;1458;49.728;9.228;2022-12-18T03:30:59;1.80;;;1.80;;
2896;SDS011;1458;49.728;9.228;2022-12-18T03:33:30;1.90;;;1.90;;
2896;SDS011;1458;49.728;9.228;2022-12-18T03:36:05;2.00;;;2.00;;
2896;SDS011;1458;49.728;9.228;2022-12-18T03:38:34;1.90;;;1.90;;
2896;SDS011;1458;49.728;9.228;2022-12-18T03:41:03;1.90;;;1.90;;
2896;SDS011;1458;49.728;9.228;2022-12-18T03:44:00;1.80;;;1.80;;
2896;SDS011;1458;49.728;9.228;2022-12-18T03:46:40;1.80;;;1.80;;
2896;SDS011;1458;49.728;9.228;2022-12-18T03:49:16;1.70;;;1.70;;
2896;SDS011;1458;49.728;9.228;2022-12-18T03:51:54;1.83;;;1.83;;
2896;SDS011;1458;49.728;9.228;2022-12-18T03:54:37;1.60;;;1.60;;
2896;SDS011;1458;49.728;9.228;2022-12-18T03:57:12;2.00;;;2.00;;
2896;SDS011;1458;49.728;9.228;2022-12-18T03:59:45;1.90;;;1.90;;
2896;SDS011;1458;49.728;9.228;2022-12-18T04:02:18;1.90;;;1.90;;
2896;SDS011;1458;49.728;9.228;2022-12-18T04:04:47;1.90;;;1.90;;
2896;SDS011;1458;49.728;9.228;2022-12-18T04:07:17;1.90;;;1.90;;
2896;SDS011;1458;49.728;9.228;2022-12-18T04:09:44;1.80;;;1.80;;
2896;SDS011;1458;49.728;9.228;2022-12-18T04:12:15;1.97;;;1.97;;
2896;SDS011;1458;49.728;9.228;2022-12-18T04:14:45;2.00;;;2.00;;
2896;SDS011;1458;49.728;9.228;2022-12-18T04:17:13;2.10;;;2.10;;
2896;SDS011;1458;49.728;9.228;2022-12-18T04:19:41;1.90;;;1.90;;
2896;SDS011;1458;49.728;9.228;2022-12-18T04:22:09;1.90;;;1.90;;
2896;SDS011;1458;49.728;9.228;2022-12-18T04:24:42;1.83;;;1.83;;
2896;SDS011;1458;49.728;9.228;2022-12-18T04:27:18;1.93;;;1.93;;
2896;SDS011;1458;49.728;9.228;2022-12-18T04:29:49;2.00;;;2.00;;
2896;SDS011;1458;49.728;9.228;2022-12-18T04:32:17;1.93;;;1.93;;
2896;SDS011;1458;49.728;9.228;2022-12-18T04:34:46;2.00;;;2.00;;
2896;SDS011;1458;49.728;9.228;2022-12-18T04:37:14;1.90;;;1.90;;
2896;SDS011;1458;49.728;9.228;2022-12-18T04:39:42;1.73;;;1.73;;
2896;SDS011;1458;49.728;9.228;2022-12-18T04:42:18;1.70;;;1.70;;
2896;SDS011;1458;49.728;9.228;2022-12-18T04:44:46;1.80;;;1.80;;
2896;SDS011;1458;49.728;9.228;2022-12-18T04:47:14;1.70;;;1.70;;
2896;SDS011;1458;49.728;9.228;2022-12-18T04:49:42;1.60;;;1.60;;
2896;SDS011;1458;49.728;9.228;2022-12-18T04:52:09;1.70;;;1.70;;
2896;SDS011;1458;49.728;9.228;2022-12-18T04:54:36;1.70;;;1.70;;
2896;SDS011;1458;49.728;9.228;2022-12-18T04:57:04;1.60;;;1.60;;
2896;SDS011;1458;49.728;9.228;2022-12-18T04:59:31;1.80;;;1.80;;
2896;SDS011;1458;49.728;9.228;2022-12-18T05:01:59;1.87;;;1.87;;
2896;SDS011;1458;49.728;9.228;2022-12-18T05:04:27;1.80;;;1.80;;
2896;SDS011;1458;49.728;9.228;2022-12-18T05:06:55;1.70;;;1.70;;
2896;SDS011;1458;49.728;9.228;2022-12-18T05:09:22;1.80;;;1.80;;
2896;SDS011;1458;49.728;9.228;2022-12-18T05:11:50;1.70;;;1.70;;
2896;SDS011;1458;49.728;9.228;2022-12-18T05:14:17;1.70;;;1.70;;
2896;SDS011;1458;49.728;9.228;2022-12-18T05:16:45;1.70;;;1.70;;
2896;SDS011;1458;49.728;9.228;2022-12-18T05:19:12;1.50;;;1.50;;
2896;SDS011;1458;49.728;9.228;2022-12-18T05:21:41;1.47;;;1.47;;
2896;SDS011;1458;49.728;9.228;2022-12-18T05:24:08;1.50;;;1.50;;
2896;SDS011;1458;49.728;9.228;2022-12-18T05:26:36;1.50;;;1.50;;
2896;SDS011;1458;49.728;9.228;2022-12-18T05:29:04;1.50;;;1.50;;
2896;SDS011;1458;49.728;9.228;2022-12-18T05:31:31;1.50;;;1.50;;
2896;SDS011;1458;49.728;9.228;2022-12-18T05:33:58;1.50;;;1.50;;
2896;SDS011;1458;49.728;9.228;2022-12-18T05:36:25;1.60;;;1.60;;
2896;SDS011;1458;49.728;9.228;2022-12-18T05:38:54;1.50;;;1.50;;
2896;SDS011;1458;49.728;9.228;2022-12-18T05:41:21;1.50;;;1.50;;
2896;SDS011;1458;49.728;9.228;2022-12-18T05:43:49;1.50;;;1.50;;
2896;SDS011;1458;49.728;9.228;2022-12-18T05:46:16;1.50;;;1.50;;
2896;SDS011;1458;49.728;9.228;2022-12-18T05:48:44;1.60;;;1.60;;
2896;SDS011;1458;49.728;9.228;2022-12-18T05:51:14;1.60;;;1.60;;
2896;SDS011;1458;49.728;9.228;2022-12-18T05:53:43;1.50;;;1.50;;
2896;SDS011;1458;49.728;9.228;2022-12-18T05:56:13;1.40;;;1.40;;
2896;SDS011;1458;49.728;9.228;2022-12-18T05:58:43;1.40;;;1.40;;
2896;SDS011;1458;49.728;9.228;2022-12-18T06:01:12;1.40;;;1.40;;
2896;SDS011;1458;49.728;9.228;2022-12-18T06:03:42;1.40;;;1.40;;
2896;SDS011;1458;49.728;9.228;2022-12-18T06:06:13;1.30;;;1.30;;
2896;SDS011;1458;49.728;9.228;2022-12-18T06:08:42;1.53;;;1.53;;
2896;SDS011;1458;49.728;9.228;2022-12-18T06:11:09;1.30;;;1.30;;
2896;SDS011;1458;49.728;9.228;2022-12-18T06:13:39;1.40;;;1.40;;
2896;SDS011;1458;49.728;9.228;2022-12-18T06:16:06;1.50;;;1.50;;
2896;SDS011;1458;49.728;9.228;2022-12-18T06:18:37;1.40;;;1.40;;
2896;SDS011;1458;49.728;9.228;2022-12-18T06:21:04;1.50;;;1.50;;
2896;SDS011;1458;49.728;9.228;2022-12-18T06:23:32;1.43;;;1.43;;
2896;SDS011;1458;49.728;9.228;2022-12-18T06:26:02;1.40;;;1.40;;
2896;SDS011;1458;49.728;9.228;2022-12-18T06:28:31;1.50;;;1.50;;
2896;SDS011;1458;49.728;9.228;2022-12-18T06:31:00;1.50;;;1.50;;
2896;SDS011;1458;49.728;9.228;2022-12-18T06:33:29;1.50;;;1.50;;
2896;SDS011;1458;49.728;9.228;2022-12-18T06:35:59;1.40;;;1.40;;
2896;SDS011;1458;49.728;9.228;2022-12-18T06:38:27;1.50;;;1.50;;
2896;SDS011;1458;49.728;9.228;2022-12-18T06:40:55;1.60;;;1.60;;
2896;SDS011;1458;49.728;9.228;2022-12-18T06:43:22;1.60;;;1.60;;
2896;SDS011;1458;49.728;9.228;2022-12-18T06:45:50;1.50;;;1.50;;
2896;SDS011;1458;49.728;9.228;2022-12-18T06:48:20;1.50;;;1.50;;
2896;SDS011;1458;49.728;9.228;2022-12-18T06:50:47;1.40;;;1.40;;
2896;SDS011;1458;49.728;9.228;2022-12-18T06:53:15;1.50;;;1.50;;
2896;SDS011;1458;49.728;9.228;2022-12-18T06:55:42;1.50;;;1.50;;
2896;SDS011;1458;49.728;9.228;2022-12-18T06:58:10;1.50;;;1.50;;
2896;SDS011;1458;49.728;9.228;2022-12-18T07:00:37;1.60;;;1.60;;
2896;SDS011;1458;49.728;9.228;2022-12-18T07:03:05;1.40;;;1.40;;
2896;SDS011;1458;49.728;9.228;2022-12-18T07:05:33;1.50;;;1.50;;
2896;SDS011;1458;49.728;9.228;2022-12-18T07:08:01;1.80;;;1.80;;
2896;SDS011;1458;49.728;9.228;2022-12-18T07:10:29;1.60;;;1.60;;
2896;SDS011;1458;49.728;9.228;2022-12-18T07:12:56;1.63;;;1.63;;
2896;SDS011;1458;49.728;9.228;2022-12-18T07:15:23;1.70;;;1.70;;
2896;SDS011;1458;49.728;9.228;2022-12-18T07:17:50;1.80;;;1.80;;
2896;SDS011;1458;49.728;9.228;2022-12-18T07:20:18;1.60;;;1.60;;
2896;SDS011;1458;49.728;9.228;2022-12-18T07:22:46;1.70;;;1.70;;
2896;SDS011;1458;49.728;9.228;2022-12-18T07:25:14;1.70;;;1.70;;
2896;SDS011;1458;49.728;9.228;2022-12-18T07:27:41;1.77;;;1.77;;
2896;SDS011;1458;49.728;9.228;2022-12-18T07:30:09;1.70;;;1.70;;
2896;SDS011;1458;49.728;9.228;2022-12-18T07:32:37;1.60;;;1.60;;
2896;SDS011;1458;49.728;9.228;2022-12-18T07:35:05;1.70;;;1.70;;
2896;SDS011;1458;49.728;9.228;2022-12-18T07:37:33;1.80;;;1.80;;
2896;SDS011;1458;49.728;9.228;2022-12-18T07:40:02;1.80;;;1.80;;
2896;SDS011;1458;49.728;9.228;2022-12-18T07:42:30;1.70;;;1.70;;
2896;SDS011;1458;49.728;9.228;2022-12-18T07:44:57;1.80;;;1.80;;
2896;SDS011;1458;49.728;9.228;2022-12-18T07:47:25;1.70;;;1.70;;
2896;SDS011;1458;49.728;9.228;2022-12-18T07:49:52;1.80;;;1.80;;
2896;SDS011;1458;49.728;9.228;2022-12-18T07:52:19;1.70;;;1.70;;
2896;SDS011;1458;49.728;9.228;2022-12-18T07:54:47;1.73;;;1.73;;
2896;SDS011;1458;49.728;9.228;2022-12-18T07:57:16;1.77;;;1.77;;
2896;SDS011;1458;49.728;9.228;2022-12-18T07:59:44;1.70;;;1.70;;
2896;SDS011;1458;49.728;9.228;2022-12-18T08:02:11;1.77;;;1.77;;
2896;SDS011;1458;49.728;9.228;2022-12-18T08:04:38;1.80;;;1.80;;
2896;SDS011;1458;49.728;9.228;2022-12-18T08:07:06;1.80;;;1.80;;
2896;SDS011;1458;49.728;9.228;2022-12-18T08:09:33;1.80;;;1.80;;
2896;SDS011;1458;49.728;9.228;2022-12-18T08:12:00;1.80;;;1.80;;
2896;SDS011;1458;49.728;9.228;2022-12-18T08:14:29;1.67;;;1.67;;
2896;SDS011;1458;49.728;9.228;2022-12-18T08:16:57;1.80;;;1.80;;
2896;SDS011;1458;49.728;9.228;2022-12-18T08:19:24;1.70;;;1.70;;
2896;SDS011;1458;49.728;9.228;2022-12-18T08:21:52;1.70;;;1.70;;
2896;SDS011;1458;49.728;9.228;2022-12-18T08:24:19;1.80;;;1.80;;
2896;SDS011;1458;49.728;9.228;2022-12-18T08:26:46;1.70;;;1.70;;
2896;SDS011;1458;49.728;9.228;2022-12-18T08:29:14;1.80;;;1.80;;
2896;SDS011;1458;49.728;9.228;2022-12-18T08:31:42;1.87;;;1.87;;
2896;SDS011;1458;49.728;9.228;2022-12-18T08:34:10;2.00;;;2.00;;
2896;SDS011;1458;49.728;9.228;2022-12-18T08:36:37;1.80;;;1.80;;
2896;SDS011;1458;49.728;9.228;2022-12-18T08:39:05;1.80;;;1.80;;
2896;SDS011;1458;49.728;9.228;2022-12-18T08:41:32;1.60;;;1.60;;
2896;SDS011;1458;49.728;9.228;2022-12-18T08:43:59;1.80;;;1.80;;
2896;SDS011;1458;49.728;9.228;2022-12-18T08:46:46;1.70;;;1.70;;
2896;SDS011;1458;49.728;9.228;2022-12-18T08:49:13;1.70;;;1.70;;
2896;SDS011;1458;49.728;9.228;2022-12-18T08:51:40;1.80;;;1.80;;
2896;SDS011;1458;49.728;9.228;2022-12-18T08:54:09;1.70;;;1.70;;
2896;SDS011;1458;49.728;9.228;2022-12-18T08:56:38;1.70;;;1.70;;
2896;SDS011;1458;49.728;9.228;2022-12-18T08:59:06;1.80;;;1.80;;
2896;SDS011;1458;49.728;9.228;2022-12-18T09:01:34;1.63;;;1.63;;
2896;SDS011;1458;49.728;9.228;2022-12-18T09:04:03;1.90;;;1.90;;
2896;SDS011;1458;49.728;9.228;2022-12-18T09:06:31;1.60;;;1.60;;
2896;SDS011;1458;49.728;9.228;2022-12-18T09:08:58;1.70;;;1.70;;
2896;SDS011;1458;49.728;9.228;2022-12-18T09:11:26;1.70;;;1.70;;
2896;SDS011;1458;49.728;9.228;2022-12-18T09:13:55;1.73;;;1.73;;
2896;SDS011;1458;49.728;9.228;2022-12-18T09:16:24;1.80;;;1.80;;
2896;SDS011;1458;49.728;9.228;2022-12-18T09:18:53;1.80;;;1.80;;
2896;SDS011;1458;49.728;9.228;2022-12-18T09:21:27;1.80;;;1.80;;
2896;SDS011;1458;49.728;9.228;2022-12-18T09:23:56;1.90;;;1.90;;
2896;SDS011;1458;49.728;9.228;2022-12-18T09:26:24;1.77;;;1.77;;
2896;SDS011;1458;49.728;9.228;2022-12-18T09:28:53;1.83;;;1.83;;
2896;SDS011;1458;49.728;9.228;2022-12-18T09:31:22;1.90;;;1.90;;
2896;SDS011;1458;49.728;9.228;2022-12-18T09:33:50;2.00;;;2.00;;
2896;SDS011;1458;49.728;9.228;2022-12-18T09:36:18;1.90;;;1.90;;
2896;SDS011;1458;49.728;9.228;2022-12-18T09:38:47;1.80;;;1.80;;
2896;SDS011;1458;49.728;9.228;2022-12-18T09:41:17;2.00;;;2.00;;
2896;SDS011;1458;49.728;9.228;2022-12-18T09:44:03;1.80;;;1.80;;
2896;SDS011;1458;49.728;9.228;2022-12-18T09:46:38;1.93;;;1.93;;
2896;SDS011;1458;49.728;9.228;2022-12-18T09:49:12;2.10;;;2.10;;
2896;SDS011;1458;49.728;9.228;2022-12-18T09:51:45;2.07;;;2.07;;
2896;SDS011;1458;49.728;9.228;2022-12-18T09:54:20;2.00;;;2.00;;
2896;SDS011;1458;49.728;9.228;2022-12-18T09:56:52;2.00;;;2.00;;
2896;SDS011;1458;49.728;9.228;2022-12-18T09:59:21;2.00;;;2.00;;
2896;SDS011;1458;49.728;9.228;2022-12-18T10:01:53;2.00;;;2.00;;
2896;SDS011;1458;49.728;9.228;2022-12-18T10:04:21;2.10;;;2.10;;
2896;SDS011;1458;49.728;9.228;2022-12-18T10:06:50;2.10;;;2.10;;
2896;SDS011;1458;49.728;9.228;2022-12-18T10:09:27;2.00;;;2.00;;
2896;SDS011;1458;49.728;9.228;2022-12-18T10:12:02;2.00;;;2.00;;
2896;SDS011;1458;49.728;9.228;2022-12-18T10:14:36;2.00;;;2.00;;
2896;SDS011;1458;49.728;9.228;2022-12-18T10:17:17;2.00;;;2.00;;
2896;SDS011;1458;49.728;9.228;2022-12-18T10:19:54;1.93;;;1.93;;
2896;SDS011;1458;49.728;9.228;2022-12-18T10:22:36;1.80;;;1.80;;
2896;SDS011;1458;49.728;9.228;2022-12-18T10:25:21;2.00;;;2.00;;
2896;SDS011;1458;49.728;9.228;2022-12-18T10:27:52;1.90;;;1.90;;
2896;SDS011;1458;49.728;9.228;2022-12-18T10:30:24;2.10;;;2.10;;
2896;SDS011;1458;49.728;9.228;2022-12-18T10:32:52;2.10;;;2.10;;
2896;SDS011;1458;49.728;9.228;2022-12-18T10:35:22;2.10;;;2.10;;
2896;SDS011;1458;49.728;9.228;2022-12-18T10:38:05;2.10;;;2.10;;
2896;SDS011;1458;49.728;9.228;2022-12-18T10:40:49;2.07;;;2.07;;
2896;SDS011;1458;49.728;9.228;2022-12-18T10:43:20;2.07;;;2.07;;
2896;SDS011;1458;49.728;9.228;2022-12-18T10:46:04;1.80;;;1.80;;
2896;SDS011;1458;49.728;9.228;2022-12-18T10:48:47;1.90;;;1.90;;
2896;SDS011;1458;49.728;9.228;2022-12-18T10:51:20;2.03;;;2.03;;
2896;SDS011;1458;49.728;9.228;2022-12-18T10:53:56;2.00;;;2.00;;
2896;SDS011;1458;49.728;9.228;2022-12-18T10:56:29;2.00;;;2.00;;
2896;SDS011;1458;49.728;9.228;2022-12-18T10:59:00;2.10;;;2.10;;
2896;SDS011;1458;49.728;9.228;2022-12-18T11:01:31;2.10;;;2.10;;
2896;SDS011;1458;49.728;9.228;2022-12-18T11:04:16;2.20;;;2.20;;
2896;SDS011;1458;49.728;9.228;2022-12-18T11:06:54;2.30;;;2.30;;
2896;SDS011;1458;49.728;9.228;2022-12-18T11:09:24;2.30;;;2.30;;
2896;SDS011;1458;49.728;9.228;2022-12-18T11:11:55;2.03;;;2.03;;
2896;SDS011;1458;49.728;9.228;2022-12-18T11:14:25;2.10;;;2.10;;
2896;SDS011;1458;49.728;9.228;2022-12-18T11:16:54;2.20;;;2.20;;
2896;SDS011;1458;49.728;9.228;2022-12-18T11:19:31;2.20;;;2.20;;
2896;SDS011;1458;49.728;9.228;2022-12-18T11:22:01;2.20;;;2.20;;
2896;SDS011;1458;49.728;9.228;2022-12-18T11:24:49;2.37;;;2.37;;
2896;SDS011;1458;49.728;9.228;2022-12-18T11:27:23;2.30;;;2.30;;
2896;SDS011;1458;49.728;9.228;2022-12-18T11:29:51;2.00;;;2.00;;
2896;SDS011;1458;49.728;9.228;2022-12-18T11:32:21;2.00;;;2.00;;
2896;SDS011;1458;49.728;9.228;2022-12-18T11:35:01;2.00;;;2.00;;
2896;SDS011;1458;49.728;9.228;2022-12-18T11:37:38;2.00;;;2.00;;
2896;SDS011;1458;49.728;9.228;2022-12-18T11:40:10;2.00;;;2.00;;
2896;SDS011;1458;49.728;9.228;2022-12-18T11:42:44;2.20;;;2.20;;
2896;SDS011;1458;49.728;9.228;2022-12-18T11:45:20;2.10;;;2.10;;
2896;SDS011;1458;49.728;9.228;2022-12-18T11:47:57;2.00;;;2.00;;
2896;SDS011;1458;49.728;9.228;2022-12-18T11:50:29;2.20;;;2.20;;
2896;SDS011;1458;49.728;9.228;2022-12-18T11:53:09;2.00;;;2.00;;
2896;SDS011;1458;49.728;9.228;2022-12-18T11:55:40;2.10;;;2.10;;
2896;SDS011;1458;49.728;9.228;2022-12-18T11:58:19;2.10;;;2.10;;
2896;SDS011;1458;49.728;9.228;2022-12-18T12:01:11;2.17;;;2.17;;
2896;SDS011;1458;49.728;9.228;2022-12-18T12:04:02;2.33;;;2.33;;
2896;SDS011;1458;49.728;9.228;2022-12-18T12:06:58;2.23;;;2.23;;
2896;SDS011;1458;49.728;9.228;2022-12-18T12:09:39;2.20;;;2.20;;
2896;SDS011;1458;49.728;9.228;2022-12-18T12:12:23;2.30;;;2.30;;
2896;SDS011;1458;49.728;9.228;2022-12-18T12:15:16;2.37;;;2.37;;
2896;SDS011;1458;49.728;9.228;2022-12-18T12:17:55;2.57;;;2.57;;
2896;SDS011;1458;49.728;9.228;2022-12-18T12:20:35;2.23;;;2.23;;
2896;SDS011;1458;49.728;9.228;2022-12-18T12:23:14;2.20;;;2.20;;
2896;SDS011;1458;49.728;9.228;2022-12-18T12:25:52;2.30;;;2.30;;
2896;SDS011;1458;49.728;9.228;2022-12-18T12:28:31;2.43;;;2.43;;
2896;SDS011;1458;49.728;9.228;2022-12-18T12:31:19;2.40;;;2.40;;
2896;SDS011;1458;49.728;9.228;2022-12-18T12:33:59;2.30;;;2.30;;
2896;SDS011;1458;49.728;9.228;2022-12-18T12:36:46;2.27;;;2.27;;
2896;SDS011;1458;49.728;9.228;2022-12-18T12:39:28;2.30;;;2.30;;
2896;SDS011;1458;49.728;9.228;2022-12-18T12:42:00;2.10;;;2.10;;
2896;SDS011;1458;49.728;9.228;2022-12-18T12:44:49;2.10;;;2.10;;
2896;SDS011;1458;49.728;9.228;2022-12-18T12:47:25;2.20;;;2.20;;
2896;SDS011;1458;49.728;9.228;2022-12-18T12:49:58;2.10;;;2.10;;
2896;SDS011;1458;49.728;9.228;2022-12-18T12:52:30;2.00;;;2.00;;
2896;SDS011;1458;49.728;9.228;2022-12-18T12:55:02;2.00;;;2.00;;
2896;SDS011;1458;49.728;9.228;2022-12-18T12:57:40;2.10;;;2.10;;
2896;SDS011;1458;49.728;9.228;2022-12-18T13:00:13;2.00;;;2.00;;
2896;SDS011;1458;49.728;9.228;2022-12-18T13:02:47;2.20;;;2.20;;
2896;SDS011;1458;49.728;9.228;2022-12-18T13:05:21;2.17;;;2.17;;
2896;SDS011;1458;49.728;9.228;2022-12-18T13:07:55;2.30;;;2.30;;
2896;SDS011;1458;49.728;9.228;2022-12-18T13:10:32;2.30;;;2.30;;
2896;SDS011;1458;49.728;9.228;2022-12-18T13:13:03;2.20;;;2.20;;
2896;SDS011;1458;49.728;9.228;2022-12-18T13:15:37;2.30;;;2.30;;
2896;SDS011;1458;49.728;9.228;2022-12-18T13:18:19;2.20;;;2.20;;
2896;SDS011;1458;49.728;9.228;2022-12-18T13:20:49;2.30;;;2.30;;
2896;SDS011;1458;49.728;9.228;2022-12-18T13:23:28;2.20;;;2.20;;
2896;SDS011;1458;49.728;9.228;2022-12-18T13:28:59;2.40;;;2.40;;
2896;SDS011;1458;49.728;9.228;2022-12-18T13:34:48;2.30;;;2.30;;
2896;SDS011;1458;49.728;9.228;2022-12-18T13:37:55;2.20;;;2.20;;
2896;SDS011;1458;49.728;9.228;2022-12-18T13:43:23;2.20;;;2.20;;
2896;SDS011;1458;49.728;9.228;2022-12-18T13:45:59;2.00;;;2.00;;
2896;SDS011;1458;49.728;9.228;2022-12-18T13:48:52;2.20;;;2.20;;
2896;SDS011;1458;49.728;9.228;2022-12-18T13:51:25;2.00;;;2.00;;
2896;SDS011;1458;49.728;9.228;2022-12-18T13:53:56;2.00;;;2.00;;
2896;SDS011;1458;49.728;9.228;2022-12-18T13:56:27;1.90;;;1.90;;
2896;SDS011;1458;49.728;9.228;2022-12-18T14:01:51;2.00;;;2.00;;
2896;SDS011;1458;49.728;9.228;2022-12-18T14:04:22;2.10;;;2.10;;
2896;SDS011;1458;49.728;9.228;2022-12-18T14:06:55;2.00;;;2.00;;
2896;SDS011;1458;49.728;9.228;2022-12-18T14:09:28;2.00;;;2.00;;
2896;SDS011;1458;49.728;9.228;2022-12-18T14:12:02;1.80;;;1.80;;
2896;SDS011;1458;49.728;9.228;2022-12-18T14:14:47;1.80;;;1.80;;
2896;SDS011;1458;49.728;9.228;2022-12-18T14:17:17;1.70;;;1.70;;
2896;SDS011;1458;49.728;9.228;2022-12-18T14:19:46;2.20;;;2.20;;
2896;SDS011;1458;49.728;9.228;2022-12-18T14:22:17;1.93;;;1.93;;
2896;SDS011;1458;49.728;9.228;2022-12-18T14:24:47;1.90;;;1.90;;
2896;SDS011;1458;49.728;9.228;2022-12-18T14:27:41;1.90;;;1.90;;
2896;SDS011;1458;49.728;9.228;2022-12-18T14:30:23;1.90;;;1.90;;
2896;SDS011;1458;49.728;9.228;2022-12-18T14:33:02;1.80;;;1.80;;
2896;SDS011;1458;49.728;9.228;2022-12-18T14:35:31;1.90;;;1.90;;
2896;SDS011;1458;49.728;9.228;2022-12-18T14:38:15;1.70;;;1.70;;
2896;SDS011;1458;49.728;9.228;2022-12-18T14:40:52;1.77;;;1.77;;
2896;SDS011;1458;49.728;9.228;2022-12-18T14:43:21;1.77;;;1.77;;
2896;SDS011;1458;49.728;9.228;2022-12-18T14:45:49;1.80;;;1.80;;
2896;SDS011;1458;49.728;9.228;2022-12-18T14:48:17;1.70;;;1.70;;
2896;SDS011;1458;49.728;9.228;2022-12-18T14:50:57;1.70;;;1.70;;
2896;SDS011;1458;49.728;9.228;2022-12-18T14:53:39;1.70;;;1.70;;
2896;SDS011;1458;49.728;9.228;2022-12-18T14:56:13;1.80;;;1.80;;
2896;SDS011;1458;49.728;9.228;2022-12-18T14:58:44;1.60;;;1.60;;
2896;SDS011;1458;49.728;9.228;2022-12-18T15:01:18;1.70;;;1.70;;
2896;SDS011;1458;49.728;9.228;2022-12-18T15:03:47;1.60;;;1.60;;
2896;SDS011;1458;49.728;9.228;2022-12-18T15:06:16;1.60;;;1.60;;
2896;SDS011;1458;49.728;9.228;2022-12-18T15:08:50;1.60;;;1.60;;
2896;SDS011;1458;49.728;9.228;2022-12-18T15:14:23;1.50;;;1.50;;
2896;SDS011;1458;49.728;9.228;2022-12-18T15:17:05;1.60;;;1.60;;
2896;SDS011;1458;49.728;9.228;2022-12-18T15:19:43;1.57;;;1.57;;
2896;SDS011;1458;49.728;9.228;2022-12-18T15:22:16;1.40;;;1.40;;
2896;SDS011;1458;49.728;9.228;2022-12-18T15:24:49;1.50;;;1.50;;
2896;SDS011;1458;49.728;9.228;2022-12-18T15:27:21;1.20;;;1.20;;
2896;SDS011;1458;49.728;9.228;2022-12-18T15:30:02;1.30;;;1.30;;
2896;SDS011;1458;49.728;9.228;2022-12-18T15:32:52;1.27;;;1.27;;
2896;SDS011;1458;49.728;9.228;2022-12-18T15:35:55;1.30;;;1.30;;
2896;SDS011;1458;49.728;9.228;2022-12-18T15:38:24;1.20;;;1.20;;
2896;SDS011;1458;49.728;9.228;2022-12-18T15:40:53;1.30;;;1.30;;
2896;SDS011;1458;49.728;9.228;2022-12-18T15:43:21;1.20;;;1.20;;
2896;SDS011;1458;49.728;9.228;2022-12-18T15:46:02;1.13;;;1.13;;
2896;SDS011;1458;49.728;9.228;2022-12-18T15:48:32;1.20;;;1.20;;
2896;SDS011;1458;49.728;9.228;2022-12-18T15:51:00;1.23;;;1.23;;
2896;SDS011;1458;49.728;9.228;2022-12-18T15:53:30;1.20;;;1.20;;
2896;SDS011;1458;49.728;9.228;2022-12-18T15:56:00;1.20;;;1.20;;
2896;SDS011;1458;49.728;9.228;2022-12-18T15:58:46;1.20;;;1.20;;
2896;SDS011;1458;49.728;9.228;2022-12-18T16:01:13;1.20;;;1.20;;